createdAt,value
2017-10-22T00:00:29.525Z,99.90
2017-10-22T00:05:30.555Z,99.90
2017-10-22T00:10:31.617Z,99.90
2017-10-22T00:15:33.691Z,99.90
2017-10-22T00:20:34.755Z,99.90
2017-10-22T00:25:35.808Z,99.90
2017-10-22T00:30:36.866Z,99.90
2017-10-22T00:35:37.917Z,99.90
2017-10-22T00:40:38.994Z,99.90
2017-10-22T00:45:41.177Z,99.90
2017-10-22T00:50:42.226Z,99.90
2017-10-22T00:55:43.274Z,99.90
2017-10-22T01:00:44.359Z,99.90
2017-10-22T01:05:45.416Z,99.90
2017-10-22T01:10:46.447Z,99.90
2017-10-22T01:15:47.525Z,99.90
2017-10-22T01:20:48.565Z,99.90
2017-10-22T01:25:49.638Z,99.90
2017-10-22T01:30:50.695Z,99.90
2017-10-22T01:35:51.747Z,99.90
2017-10-22T01:40:52.905Z,99.90
2017-10-22T01:45:53.962Z,99.90
2017-10-22T01:50:55.039Z,99.90
2017-10-22T01:55:56.102Z,99.90
2017-10-22T02:00:57.155Z,99.90
2017-10-22T02:05:58.213Z,99.90
2017-10-22T02:10:59.245Z,99.90
2017-10-22T02:16:00.314Z,99.90
2017-10-22T02:21:01.365Z,99.90
2017-10-22T02:26:02.446Z,99.90
2017-10-22T02:31:03.481Z,99.90
2017-10-22T02:36:04.728Z,99.90
2017-10-22T02:41:06.767Z,99.90
2017-10-22T02:46:07.794Z,99.90
2017-10-22T02:51:08.865Z,99.90
2017-10-22T02:56:09.914Z,99.90
2017-10-22T03:01:11.081Z,99.90
2017-10-22T03:06:12.128Z,99.90
2017-10-22T03:11:13.194Z,99.90
2017-10-22T03:16:14.257Z,99.90
2017-10-22T03:21:16.453Z,99.90
2017-10-22T03:26:17.506Z,99.90
2017-10-22T03:31:18.660Z,99.90
2017-10-22T03:36:19.709Z,99.90
2017-10-22T03:41:20.766Z,99.90
2017-10-22T03:46:21.835Z,99.90
2017-10-22T03:51:24.029Z,99.90
2017-10-22T03:56:25.071Z,99.90
2017-10-22T04:01:26.170Z,99.90
2017-10-22T04:06:27.408Z,99.90
2017-10-22T04:11:28.450Z,99.90
2017-10-22T04:16:29.523Z,99.90
2017-10-22T04:21:30.568Z,99.90
2017-10-22T04:26:31.627Z,99.90
2017-10-22T04:31:32.677Z,99.90
2017-10-22T04:36:34.778Z,99.90
2017-10-22T04:41:36.929Z,99.90
2017-10-22T04:46:38.019Z,99.90
2017-10-22T04:51:39.062Z,99.90
2017-10-22T04:56:40.131Z,99.90
2017-10-22T05:01:42.302Z,99.90
2017-10-22T05:06:43.381Z,99.90
2017-10-22T05:11:44.410Z,99.90
2017-10-22T05:16:45.474Z,99.90
2017-10-22T05:21:46.544Z,99.90
2017-10-22T05:26:47.657Z,99.90
2017-10-22T05:31:49.679Z,99.90
2017-10-22T05:36:50.749Z,99.90
2017-10-22T05:41:51.786Z,99.90
2017-10-22T05:46:52.872Z,99.90
2017-10-22T05:51:54.019Z,99.90
2017-10-22T05:56:56.194Z,99.90
2017-10-22T06:01:57.258Z,99.90
2017-10-22T06:06:58.337Z,99.90
2017-10-22T06:11:59.396Z,99.90
2017-10-22T06:17:00.438Z,93.90
2017-10-22T06:22:01.507Z,99.90
2017-10-22T06:27:02.534Z,99.90
2017-10-22T06:32:03.617Z,98.30
2017-10-22T06:37:04.693Z,95.60
2017-10-22T06:42:05.847Z,86.20
2017-10-22T06:47:06.902Z,81.90
2017-10-22T06:52:09.070Z,87.70
2017-10-22T06:57:10.110Z,89.30
2017-10-22T07:02:11.186Z,88.30
2017-10-22T07:07:12.242Z,82.50
2017-10-22T07:12:14.438Z,79.00
2017-10-22T07:17:15.906Z,77.60
2017-10-22T07:22:16.965Z,78.00
2017-10-22T07:27:17.997Z,82.60
2017-10-22T07:32:19.081Z,92.00
2017-10-22T07:37:20.229Z,93.00
2017-10-22T07:42:21.307Z,93.30
2017-10-22T07:47:22.366Z,91.90
2017-10-22T07:52:23.510Z,91.70
2017-10-22T07:57:24.567Z,91.40
2017-10-22T08:02:25.630Z,91.80
2017-10-22T08:07:26.693Z,83.10
2017-10-22T08:12:27.766Z,77.20
2017-10-22T08:17:28.811Z,76.90
2017-10-22T08:22:29.857Z,77.50
2017-10-22T08:27:30.927Z,76.90
2017-10-22T08:32:31.970Z,74.10
2017-10-22T08:37:33.041Z,73.50
2017-10-22T08:42:34.121Z,74.60
2017-10-22T08:47:35.162Z,73.40
2017-10-22T08:52:36.220Z,73.90
2017-10-22T08:57:37.280Z,74.00
2017-10-22T09:02:38.341Z,73.40
2017-10-22T09:07:39.387Z,75.90
2017-10-22T09:12:40.450Z,74.20
2017-10-22T09:17:41.611Z,75.50
2017-10-22T09:22:43.698Z,76.20
2017-10-22T09:27:44.758Z,77.00
2017-10-22T09:32:47.871Z,76.00
2017-10-22T09:37:50.216Z,76.80
2017-10-22T09:42:51.494Z,74.40
2017-10-22T09:47:53.593Z,74.10
2017-10-22T09:52:55.681Z,72.70
2017-10-22T09:57:56.744Z,73.70
2017-10-22T10:02:57.799Z,76.40
2017-10-22T10:07:58.862Z,75.40
2017-10-22T10:12:59.893Z,76.60
2017-10-22T10:18:01.002Z,77.40
2017-10-22T10:23:03.155Z,81.30
2017-10-22T10:28:05.239Z,79.20
2017-10-22T10:33:06.299Z,77.40
2017-10-22T10:38:07.351Z,75.90
2017-10-22T10:43:08.431Z,76.20
2017-10-22T10:48:09.466Z,75.50
2017-10-22T10:53:10.503Z,77.90
2017-10-22T10:58:11.686Z,77.10
2017-10-22T11:03:12.840Z,77.80
2017-10-22T11:08:13.910Z,75.30
2017-10-22T11:13:15.049Z,76.80
2017-10-22T11:18:16.126Z,79.30
2017-10-22T11:23:17.169Z,76.70
2017-10-22T11:28:18.239Z,78.10
2017-10-22T11:33:19.515Z,75.80
2017-10-22T11:38:20.545Z,73.60
2017-10-22T11:43:21.631Z,74.80
2017-10-22T11:48:22.683Z,73.60
2017-10-22T11:53:23.686Z,74.20
2017-10-22T11:58:25.721Z,76.80
2017-10-22T12:03:27.805Z,74.30
2017-10-22T12:08:28.854Z,73.50
2017-10-22T12:13:31.050Z,71.80
2017-10-22T12:18:32.127Z,76.80
2017-10-22T12:23:33.159Z,78.50
2017-10-22T12:28:34.222Z,77.30
2017-10-22T12:33:35.261Z,78.00
2017-10-22T12:38:36.318Z,78.60
2017-10-22T12:43:37.377Z,77.50
2017-10-22T12:48:38.442Z,78.30
2017-10-22T12:53:39.506Z,78.00
2017-10-22T12:58:40.687Z,78.30
2017-10-22T13:03:41.736Z,79.60
2017-10-22T13:08:42.890Z,77.50
2017-10-22T13:13:43.930Z,78.60
2017-10-22T13:18:45.002Z,76.60
2017-10-22T13:23:46.061Z,79.00
2017-10-22T13:28:47.119Z,80.50
2017-10-22T13:33:48.178Z,80.30
2017-10-22T13:38:49.234Z,80.20
2017-10-22T13:43:50.297Z,79.20
2017-10-22T13:48:52.475Z,79.80
2017-10-22T13:53:53.555Z,80.10
2017-10-22T13:58:55.602Z,82.10
2017-10-22T14:03:56.769Z,82.20
2017-10-22T14:08:58.875Z,83.70
2017-10-22T14:13:59.922Z,83.80
2017-10-22T14:19:00.988Z,83.90
2017-10-22T14:24:02.050Z,84.90
2017-10-22T14:29:03.117Z,87.60
2017-10-22T14:34:04.176Z,87.50
2017-10-22T14:39:05.214Z,89.10
2017-10-22T14:44:06.272Z,91.80
2017-10-22T14:49:07.342Z,91.60
2017-10-22T14:54:08.529Z,93.10
2017-10-22T14:59:09.570Z,97.20
2017-10-22T15:04:10.615Z,99.90
2017-10-22T15:09:11.674Z,99.90
2017-10-22T15:14:12.715Z,99.90
2017-10-22T15:19:13.800Z,99.90
2017-10-22T15:24:14.857Z,99.90
2017-10-22T15:29:15.866Z,99.90
2017-10-22T15:34:17.688Z,99.90
2017-10-22T15:39:18.774Z,99.90
2017-10-22T15:44:19.792Z,99.90
2017-10-22T15:49:20.859Z,99.90
2017-10-22T15:54:23.042Z,99.90
2017-10-22T15:59:24.101Z,99.90
2017-10-22T16:04:25.159Z,99.90
2017-10-22T16:09:26.309Z,99.90
2017-10-22T16:14:27.382Z,99.90
2017-10-22T16:19:28.434Z,99.90
2017-10-22T16:24:29.494Z,99.90
2017-10-22T16:29:30.554Z,99.90
2017-10-22T16:34:31.614Z,99.90
2017-10-22T16:39:32.681Z,99.90
2017-10-22T16:44:33.831Z,99.90
2017-10-22T16:49:34.892Z,99.90
2017-10-22T16:54:36.175Z,99.90
2017-10-22T16:59:37.523Z,99.90
2017-10-22T17:04:38.685Z,99.90
2017-10-22T17:09:39.717Z,99.90
2017-10-22T17:14:42.550Z,99.90
2017-10-22T17:19:43.605Z,99.90
2017-10-22T17:24:44.754Z,98.60
2017-10-22T17:29:45.833Z,98.90
2017-10-22T17:34:46.902Z,99.90
2017-10-22T17:39:52.413Z,99.90
2017-10-22T17:44:54.368Z,99.80
2017-10-22T17:49:55.588Z,99.90
2017-10-22T17:54:56.738Z,99.90
2017-10-22T17:59:57.798Z,99.90
2017-10-22T18:04:58.983Z,99.90
2017-10-22T18:10:00.019Z,99.90
2017-10-22T18:15:01.102Z,99.90
2017-10-22T18:20:02.142Z,99.90
2017-10-22T18:25:03.157Z,99.90
2017-10-22T18:30:04.183Z,99.90
2017-10-22T18:35:05.214Z,99.90
2017-10-22T18:40:06.379Z,99.90
2017-10-22T18:45:07.421Z,99.90
2017-10-22T18:50:08.495Z,99.90
2017-10-22T18:55:09.543Z,99.90
2017-10-22T19:00:10.681Z,99.90
2017-10-22T19:05:11.856Z,99.90
2017-10-22T19:10:12.918Z,99.90
2017-10-22T19:15:14.078Z,99.90
2017-10-22T19:20:15.126Z,99.90
2017-10-22T19:25:16.192Z,99.90
2017-10-22T19:30:17.248Z,99.90
2017-10-22T19:35:18.337Z,99.90
2017-10-22T19:40:19.367Z,99.90
2017-10-22T19:45:20.469Z,99.90
2017-10-22T19:50:21.711Z,99.90
2017-10-22T19:55:23.879Z,99.90
2017-10-22T20:00:24.950Z,99.90
2017-10-22T20:05:25.993Z,99.90
2017-10-22T20:10:27.072Z,99.90
2017-10-22T20:15:28.115Z,99.90
2017-10-22T20:20:29.170Z,99.90
2017-10-22T20:25:30.227Z,99.90
2017-10-22T20:30:31.286Z,99.90
2017-10-22T20:35:32.353Z,99.90
2017-10-22T20:40:33.398Z,99.90
2017-10-22T20:45:34.486Z,99.90
2017-10-22T20:50:35.510Z,99.90
2017-10-22T20:55:37.634Z,99.90
2017-10-22T21:00:38.657Z,99.90
2017-10-22T21:05:39.820Z,99.90
2017-10-22T21:10:40.886Z,99.90
2017-10-22T21:15:41.936Z,99.90
2017-10-22T21:20:43.006Z,99.90
2017-10-22T21:25:44.044Z,99.90
2017-10-22T21:30:45.115Z,99.90
2017-10-22T21:35:46.270Z,99.90
2017-10-22T21:40:47.424Z,99.90
2017-10-22T21:45:48.525Z,99.90
2017-10-22T21:50:49.549Z,99.90
2017-10-22T21:55:50.606Z,99.90
2017-10-22T22:00:52.810Z,99.90
2017-10-22T22:05:53.945Z,99.90
2017-10-22T22:10:54.980Z,99.90
2017-10-22T22:15:56.066Z,99.90
2017-10-22T22:20:58.249Z,99.90
2017-10-22T22:25:59.316Z,99.90
2017-10-22T22:31:00.362Z,99.90
2017-10-22T22:36:02.456Z,99.90
2017-10-22T22:41:03.609Z,99.90
2017-10-22T22:46:04.654Z,99.90
2017-10-22T22:51:05.814Z,99.90
2017-10-22T22:56:06.970Z,99.70
2017-10-22T23:01:09.978Z,99.10
2017-10-22T23:06:11.066Z,99.10
2017-10-22T23:11:12.208Z,97.90
2017-10-22T23:16:14.842Z,98.00
2017-10-22T23:21:15.970Z,98.10
2017-10-22T23:26:17.114Z,98.60
2017-10-22T23:31:19.016Z,97.50
2017-10-22T23:36:20.034Z,97.40
2017-10-22T23:41:21.844Z,96.70
2017-10-22T23:46:22.998Z,96.60
2017-10-22T23:51:24.046Z,97.00
2017-10-22T23:56:25.055Z,96.80
